Time;durP1;ratioP1;P1;durP2;ratioP2;P2;SDS_P1;SDS_P2;PMS_P1;PMS_P2;Temp;Humidity;BMP_temperature;BMP_pressure;BME280_temperature;BME280_humidity;BME280_pressure;Samples;Min_cycle;Max_cycle;Signal;HPM_P1;HPM_P2
2023/03/22 00:00:18;;;;;;;4.15;3.78;;;;;;;;;;2077609;28;20037;-67
2023/03/22 00:01:39;;;;;;;5.50;3.65;;;;;;;;;;2076549;28;20034;-67
2023/03/22 00:02:58;;;;;;;4.45;4.05;;;;;;;;;;2076842;28;20490;-67
2023/03/22 00:04:17;;;;;;;8.98;4.32;;;;;;;;;;2075428;28;20030;-67
2023/03/22 00:05:36;;;;;;;4.68;4.28;;;;;;;;;;2076129;28;20029;-67
2023/03/22 00:06:55;;;;;;;5.90;3.92;;;;;;;;;;2076331;28;20061;-67
2023/03/22 00:08:14;;;;;;;4.22;3.83;;;;;;;;;;2075785;28;20025;-67
2023/03/22 00:09:33;;;;;;;7.15;4.30;;;;;;;;;;2076766;28;20029;-67
2023/03/22 00:10:52;;;;;;;4.13;3.65;;;;;;;;;;2076796;28;20045;-67
2023/03/22 00:12:11;;;;;;;4.28;3.88;;;;;;;;;;2076107;28;20030;-67
2023/03/22 00:13:30;;;;;;;4.85;4.40;;;;;;;;;;2082780;28;20030;-67
2023/03/22 00:14:51;;;;;;;6.30;4.93;;;;;;;;;;2076932;28;20037;-67
2023/03/22 00:16:09;;;;;;;4.75;4.25;;;;;;;;;;2076388;28;20034;-67
2023/03/22 00:17:29;;;;;;;6.75;4.90;;;;;;;;;;2077300;28;20402;-67
2023/03/22 00:18:48;;;;;;;8.40;4.82;;;;;;;;;;2077050;28;20108;-67
2023/03/22 00:20:07;;;;;;;5.78;4.80;;;;;;;;;;2076959;28;20387;-67
2023/03/22 00:21:26;;;;;;;6.90;5.50;;;;;;;;;;2077326;28;20034;-67
2023/03/22 00:22:46;;;;;;;11.20;7.80;;;;;;;;;;2079959;28;20033;-67
2023/03/22 00:24:05;;;;;;;6.85;5.13;;;;;;;;;;2078490;28;20030;-67
2023/03/22 00:25:24;;;;;;;7.05;5.57;;;;;;;;;;2079015;28;20030;-67
2023/03/22 00:26:45;;;;;;;6.78;6.07;;;;;;;;;;2078569;28;20029;-67
2023/03/22 00:28:04;;;;;;;9.00;5.97;;;;;;;;;;2078942;28;20025;-67
2023/03/22 00:29:23;;;;;;;6.55;5.93;;;;;;;;;;2078274;28;20120;-68
2023/03/22 00:30:50;;;;;;;7.25;5.50;;;;;;;;;;2078176;28;20021;-67
2023/03/22 00:32:09;;;;;;;6.80;5.05;;;;;;;;;;2078390;28;20037;-67
2023/03/22 00:33:29;;;;;;;6.57;5.03;;;;;;;;;;2078195;28;20402;-67
2023/03/22 00:34:48;;;;;;;8.85;6.20;;;;;;;;;;2079121;28;20093;-67
2023/03/22 00:36:09;;;;;;;6.45;5.32;;;;;;;;;;2079681;28;20063;-67
2023/03/22 00:37:33;;;;;;;7.68;5.75;;;;;;;;;;2079532;28;20511;-67
2023/03/22 00:38:51;;;;;;;7.45;5.38;;;;;;;;;;2079381;28;20033;-67
2023/03/22 00:40:11;;;;;;;7.85;6.45;;;;;;;;;;2078985;28;20022;-67
2023/03/22 00:41:31;;;;;;;7.55;5.63;;;;;;;;;;2078100;28;20026;-67
2023/03/22 00:42:50;;;;;;;9.18;6.07;;;;;;;;;;2079189;28;20022;-67
2023/03/22 00:44:09;;;;;;;9.07;5.93;;;;;;;;;;2078492;28;20479;-67
2023/03/22 00:45:28;;;;;;;11.57;6.90;;;;;;;;;;2078625;28;20026;-67
2023/03/22 00:46:47;;;;;;;8.18;6.47;;;;;;;;;;2077699;28;20407;-67
2023/03/22 00:48:07;;;;;;;8.23;6.32;;;;;;;;;;2078145;28;20402;-67
2023/03/22 00:49:26;;;;;;;7.03;6.32;;;;;;;;;;2086756;28;20033;-67
2023/03/22 00:50:45;;;;;;;6.05;5.45;;;;;;;;;;2080395;28;20034;-67
2023/03/22 00:52:04;;;;;;;8.80;5.80;;;;;;;;;;2079108;28;20026;-67
2023/03/22 00:53:24;;;;;;;6.40;5.30;;;;;;;;;;2078242;28;20045;-67
2023/03/22 00:54:44;;;;;;;9.52;6.75;;;;;;;;;;2078291;28;20421;-67
2023/03/22 00:56:04;;;;;;;9.27;6.97;;;;;;;;;;2078289;28;20033;-67
2023/03/22 00:57:23;;;;;;;11.80;7.45;;;;;;;;;;2077486;28;20490;-67
2023/03/22 00:58:42;;;;;;;10.30;7.50;;;;;;;;;;2077717;28;20498;-67
2023/03/22 01:00:14;;;;;;;10.20;8.02;;;;;;;;;;2079024;28;20033;-67
2023/03/22 01:01:34;;;;;;;9.30;7.63;;;;;;;;;;2078643;28;20025;-67
2023/03/22 01:02:53;;;;;;;12.55;7.97;;;;;;;;;;2078874;28;20022;-67
2023/03/22 01:04:16;;;;;;;9.40;8.15;;;;;;;;;;2078058;28;20454;-67
2023/03/22 01:05:35;;;;;;;10.43;7.68;;;;;;;;;;2078854;28;20029;-67
2023/03/22 01:06:58;;;;;;;10.85;7.80;;;;;;;;;;2078250;28;20116;-67
2023/03/22 01:08:17;;;;;;;9.43;7.15;;;;;;;;;;2079402;28;20056;-67
2023/03/22 01:09:36;;;;;;;7.72;6.95;;;;;;;;;;2079254;28;20405;-67
2023/03/22 01:10:54;;;;;;;8.02;6.25;;;;;;;;;;2079638;28;20025;-67
2023/03/22 01:12:14;;;;;;;7.45;6.65;;;;;;;;;;2077747;28;20787;-67
2023/03/22 01:13:36;;;;;;;7.28;6.55;;;;;;;;;;2077114;28;20045;-67
2023/03/22 01:14:55;;;;;;;9.32;6.55;;;;;;;;;;2077234;28;20400;-67
2023/03/22 01:16:14;;;;;;;8.50;7.57;;;;;;;;;;2077706;28;20136;-67
2023/03/22 01:17:33;;;;;;;10.43;6.45;;;;;;;;;;2078328;28;20042;-67
2023/03/22 01:18:52;;;;;;;9.10;6.60;;;;;;;;;;2077950;28;20030;-67
2023/03/22 01:20:11;;;;;;;8.18;6.40;;;;;;;;;;2078409;28;20022;-67
2023/03/22 01:21:30;;;;;;;8.57;6.90;;;;;;;;;;2077306;28;20026;-67
2023/03/22 01:22:50;;;;;;;7.72;6.93;;;;;;;;;;2079005;28;20026;-67
2023/03/22 01:24:09;;;;;;;7.85;7.05;;;;;;;;;;2077676;28;20030;-67
2023/03/22 01:25:28;;;;;;;10.07;7.55;;;;;;;;;;2079577;28;20034;-67
2023/03/22 01:26:47;;;;;;;9.10;7.55;;;;;;;;;;2078433;28;20030;-67
2023/03/22 01:28:07;;;;;;;10.07;7.75;;;;;;;;;;2077558;28;20033;-67
2023/03/22 01:29:26;;;;;;;11.18;8.27;;;;;;;;;;2078119;28;20033;-67
2023/03/22 01:30:45;;;;;;;14.13;8.38;;;;;;;;;;2078921;28;20483;-67
2023/03/22 01:32:04;;;;;;;10.63;7.68;;;;;;;;;;2079126;28;20069;-67
2023/03/22 01:33:23;;;;;;;9.93;7.97;;;;;;;;;;2075889;28;20030;-67
2023/03/22 01:34:42;;;;;;;11.40;8.15;;;;;;;;;;2077446;28;20069;-67
2023/03/22 01:36:01;;;;;;;11.65;8.80;;;;;;;;;;2078306;28;20030;-67
2023/03/22 01:37:20;;;;;;;13.35;9.23;;;;;;;;;;2078992;28;20455;-67
2023/03/22 01:38:39;;;;;;;14.40;8.88;;;;;;;;;;2077530;28;20057;-67
2023/03/22 01:39:59;;;;;;;16.45;9.10;;;;;;;;;;2078434;28;20035;-67
2023/03/22 01:41:17;;;;;;;14.98;10.00;;;;;;;;;;2078148;28;20025;-67
2023/03/22 01:42:37;;;;;;;13.52;9.98;;;;;;;;;;2079774;28;20426;-67
2023/03/22 01:44:13;;;;;;;13.82;9.85;;;;;;;;;;2078564;28;20494;-67
2023/03/22 01:45:50;;;;;;;16.10;9.60;;;;;;;;;;2080950;28;20033;-67
2023/03/22 01:47:10;;;;;;;12.80;9.25;;;;;;;;;;2077495;28;20037;-67
2023/03/22 01:48:35;;;;;;;12.63;8.88;;;;;;;;;;2078757;28;20034;-67
2023/03/22 01:49:54;;;;;;;11.95;8.80;;;;;;;;;;2078773;28;20479;-67
2023/03/22 01:51:16;;;;;;;13.30;9.20;;;;;;;;;;2078018;28;20064;-67
2023/03/22 01:52:36;;;;;;;12.50;8.75;;;;;;;;;;2081126;28;20180;-67
2023/03/22 01:53:59;;;;;;;11.80;9.02;;;;;;;;;;2079631;28;20030;-67
2023/03/22 01:55:21;;;;;;;11.45;8.98;;;;;;;;;;2077654;28;20501;-67
2023/03/22 01:56:40;;;;;;;14.98;8.93;;;;;;;;;;2077984;28;20426;-67
2023/03/22 01:58:00;;;;;;;9.27;8.23;;;;;;;;;;2077113;28;20448;-67
2023/03/22 01:59:20;;;;;;;12.02;8.88;;;;;;;;;;2078737;28;20132;-67
2023/03/22 02:00:39;;;;;;;13.80;9.40;;;;;;;;;;2077766;28;20021;-67
2023/03/22 02:02:01;;;;;;;12.15;9.45;;;;;;;;;;2078712;28;20072;-67
2023/03/22 02:03:25;;;;;;;11.55;9.35;;;;;;;;;;2077872;28;20057;-67
2023/03/22 02:04:49;;;;;;;12.15;8.75;;;;;;;;;;2077679;28;20029;-67
2023/03/22 02:06:08;;;;;;;11.98;8.80;;;;;;;;;;2077713;28;20108;-67
2023/03/22 02:07:27;;;;;;;12.68;9.60;;;;;;;;;;2077970;28;20514;-68
2023/03/22 02:08:46;;;;;;;10.63;8.70;;;;;;;;;;2076948;28;20033;-67
2023/03/22 02:10:11;;;;;;;11.48;8.25;;;;;;;;;;2077711;28;20033;-67
2023/03/22 02:11:32;;;;;;;11.93;9.02;;;;;;;;;;2078612;28;20113;-67
2023/03/22 02:12:57;;;;;;;12.73;8.57;;;;;;;;;;2078888;28;20113;-67
2023/03/22 02:14:16;;;;;;;12.27;8.70;;;;;;;;;;2077465;28;20522;-67
2023/03/22 02:15:47;;;;;;;11.05;8.20;;;;;;;;;;2077384;28;20025;-67
2023/03/22 02:17:15;;;;;;;10.32;8.27;;;;;;;;;;2078243;28;20114;-68
2023/03/22 02:18:34;;;;;;;9.73;7.45;;;;;;;;;;2077056;28;20510;-67
2023/03/22 02:20:12;;;;;;;11.38;7.18;;;;;;;;;;2077359;28;20109;-69
2023/03/22 02:21:43;;;;;;;10.63;7.55;;;;;;;;;;2077873;28;20033;-67
2023/03/22 02:23:17;;;;;;;9.65;7.63;;;;;;;;;;2078752;28;20038;-67
2023/03/22 02:24:49;;;;;;;8.95;7.65;;;;;;;;;;2085032;28;20025;-67
2023/03/22 02:26:08;;;;;;;7.90;6.75;;;;;;;;;;2079466;28;20042;-67
2023/03/22 02:27:33;;;;;;;9.07;6.97;;;;;;;;;;2077188;28;20034;-67
2023/03/22 02:29:12;;;;;;;7.13;6.43;;;;;;;;;;2076848;28;20060;-67
2023/03/22 02:30:44;;;;;;;8.65;6.55;;;;;;;;;;2076823;28;20021;-66
2023/03/22 02:32:02;;;;;;;8.18;6.88;;;;;;;;;;2078851;28;20120;-71
2023/03/22 02:33:32;;;;;;;6.70;5.72;;;;;;;;;;2077927;28;20112;-67
2023/03/22 02:35:01;;;;;;;8.82;6.25;;;;;;;;;;2079327;28;20037;-67
2023/03/22 02:36:29;;;;;;;9.27;6.00;;;;;;;;;;2077739;28;20025;-67
2023/03/22 02:37:48;;;;;;;7.20;6.00;;;;;;;;;;2078039;28;20030;-67
2023/03/22 02:39:30;;;;;;;6.03;5.20;;;;;;;;;;2077171;28;20387;-67
2023/03/22 02:41:00;;;;;;;6.95;6.00;;;;;;;;;;2077866;28;20057;-67
2023/03/22 02:42:39;;;;;;;9.00;5.80;;;;;;;;;;2085012;28;20040;-67
2023/03/22 02:44:02;;;;;;;6.75;5.72;;;;;;;;;;2078719;28;20038;-67
2023/03/22 02:45:22;;;;;;;7.55;5.45;;;;;;;;;;2078292;28;20037;-67
2023/03/22 02:46:46;;;;;;;6.65;5.05;;;;;;;;;;2077153;28;20025;-67
2023/03/22 02:48:06;;;;;;;7.65;5.82;;;;;;;;;;2077105;28;20025;-67
2023/03/22 02:49:33;;;;;;;7.68;5.97;;;;;;;;;;2077965;28;20030;-67
2023/03/22 02:51:08;;;;;;;7.30;5.07;;;;;;;;;;2077458;28;20386;-67
2023/03/22 02:52:38;;;;;;;8.02;5.40;;;;;;;;;;2083730;28;20061;-67
2023/03/22 02:54:05;;;;;;;6.22;4.82;;;;;;;;;;2077103;28;20387;-67
2023/03/22 02:55:27;;;;;;;8.30;5.95;;;;;;;;;;2077802;28;20042;-67
2023/03/22 02:56:48;;;;;;;7.65;4.80;;;;;;;;;;2077188;28;20034;-67
2023/03/22 02:58:20;;;;;;;7.05;5.30;;;;;;;;;;2080356;28;20029;-67
2023/03/22 02:59:40;;;;;;;7.15;5.20;;;;;;;;;;2078337;28;20482;-67
2023/03/22 03:01:05;;;;;;;8.10;5.43;;;;;;;;;;2076486;28;20037;-67
2023/03/22 03:02:25;;;;;;;7.47;5.38;;;;;;;;;;2077335;28;20442;-67
2023/03/22 03:03:47;;;;;;;7.28;5.47;;;;;;;;;;2078036;28;20092;-67
2023/03/22 03:05:07;;;;;;;6.88;4.82;;;;;;;;;;2078039;28;20069;-67
2023/03/22 03:06:29;;;;;;;7.82;4.75;;;;;;;;;;2077773;28;20419;-67
2023/03/22 03:07:50;;;;;;;6.70;4.90;;;;;;;;;;2077057;28;20034;-67
2023/03/22 03:09:12;;;;;;;5.82;4.65;;;;;;;;;;2077514;28;20395;-67
2023/03/22 03:10:31;;;;;;;9.07;5.55;;;;;;;;;;2077889;28;20453;-67
2023/03/22 03:11:51;;;;;;;6.43;4.75;;;;;;;;;;2076976;28;20507;-67
2023/03/22 03:13:11;;;;;;;7.25;4.95;;;;;;;;;;2077482;28;20064;-67
2023/03/22 03:14:31;;;;;;;8.95;5.30;;;;;;;;;;2076702;28;20033;-67
2023/03/22 03:15:52;;;;;;;7.13;4.90;;;;;;;;;;2076943;28;20034;-67
2023/03/22 03:17:30;;;;;;;8.10;4.88;;;;;;;;;;2078017;28;20033;-67
2023/03/22 03:18:49;;;;;;;8.18;5.40;;;;;;;;;;2083626;28;20029;-67
2023/03/22 03:20:29;;;;;;;6.53;4.80;;;;;;;;;;2079586;28;20058;-67
2023/03/22 03:21:53;;;;;;;6.57;4.72;;;;;;;;;;2076804;28;20034;-67
2023/03/22 03:23:18;;;;;;;8.35;5.03;;;;;;;;;;2076381;28;20038;-67
2023/03/22 03:24:37;;;;;;;6.82;5.05;;;;;;;;;;2077112;28;20057;-67
2023/03/22 03:26:01;;;;;;;6.78;4.60;;;;;;;;;;2076673;28;20030;-67
2023/03/22 03:27:24;;;;;;;6.15;4.75;;;;;;;;;;2080329;28;20048;-67
2023/03/22 03:28:55;;;;;;;5.72;4.60;;;;;;;;;;2079667;28;20081;-67
2023/03/22 03:30:29;;;;;;;7.13;4.57;;;;;;;;;;2077327;28;20034;-67
2023/03/22 03:31:51;;;;;;;6.07;4.55;;;;;;;;;;2076555;28;20026;-67
2023/03/22 03:33:15;;;;;;;8.32;4.63;;;;;;;;;;2076415;28;20065;-67
2023/03/22 03:34:37;;;;;;;7.85;4.75;;;;;;;;;;2077061;28;20494;-67
2023/03/22 03:36:07;;;;;;;6.68;4.63;;;;;;;;;;2077489;28;20491;-67
2023/03/22 03:37:29;;;;;;;6.40;4.45;;;;;;;;;;2076312;28;20037;-67
2023/03/22 03:38:50;;;;;;;4.75;4.03;;;;;;;;;;2076939;28;20029;-67
2023/03/22 03:40:11;;;;;;;6.13;4.35;;;;;;;;;;2075598;28;20030;-67
2023/03/22 03:41:31;;;;;;;5.53;4.07;;;;;;;;;;2077265;28;20022;-67
2023/03/22 03:42:51;;;;;;;4.43;3.95;;;;;;;;;;2075827;28;20029;-67
2023/03/22 03:44:11;;;;;;;6.30;4.47;;;;;;;;;;2076195;28;20018;-67
2023/03/22 03:45:30;;;;;;;5.53;4.15;;;;;;;;;;2077972;28;20037;-67
2023/03/22 03:46:50;;;;;;;3.55;3.20;;;;;;;;;;2076778;28;20483;-67
2023/03/22 03:48:18;;;;;;;3.92;3.53;;;;;;;;;;2076253;28;20037;-67
2023/03/22 03:49:37;;;;;;;3.63;3.33;;;;;;;;;;2079590;28;20033;-67
2023/03/22 03:50:56;;;;;;;4.18;3.78;;;;;;;;;;2078088;28;20021;-67
2023/03/22 03:52:16;;;;;;;3.70;3.33;;;;;;;;;;2077549;28;20037;-67
2023/03/22 03:53:35;;;;;;;3.88;3.58;;;;;;;;;;2076826;28;20057;-67
2023/03/22 03:54:54;;;;;;;3.50;3.20;;;;;;;;;;2076854;28;20566;-67
2023/03/22 03:56:13;;;;;;;3.30;3.00;;;;;;;;;;2077197;28;20033;-67
2023/03/22 03:57:32;;;;;;;3.42;2.97;;;;;;;;;;2078379;28;20041;-67
2023/03/22 03:58:51;;;;;;;3.25;2.95;;;;;;;;;;2079347;28;20018;-67
2023/03/22 04:00:10;;;;;;;4.07;3.13;;;;;;;;;;2078360;28;20482;-67
2023/03/22 04:01:29;;;;;;;3.80;3.03;;;;;;;;;;2078606;28;20506;-67
2023/03/22 04:02:48;;;;;;;3.50;3.20;;;;;;;;;;2079149;28;20030;-67
2023/03/22 04:04:08;;;;;;;2.80;2.55;;;;;;;;;;2078146;28;20490;-67
2023/03/22 04:05:27;;;;;;;6.05;2.90;;;;;;;;;;2079235;28;20116;-67
2023/03/22 04:06:46;;;;;;;3.20;2.90;;;;;;;;;;2078454;28;20021;-67
2023/03/22 04:08:05;;;;;;;2.95;2.72;;;;;;;;;;2079126;28;20018;-67
2023/03/22 04:09:27;;;;;;;3.30;3.00;;;;;;;;;;2085254;28;20069;-67
2023/03/22 04:10:50;;;;;;;3.10;2.80;;;;;;;;;;2081024;28;20033;-67
2023/03/22 04:12:09;;;;;;;3.20;2.90;;;;;;;;;;2078761;28;20458;-67
2023/03/22 04:13:28;;;;;;;2.65;2.45;;;;;;;;;;2078229;28;20030;-67
2023/03/22 04:14:47;;;;;;;2.85;2.65;;;;;;;;;;2078661;28;20026;-67
2023/03/22 04:16:06;;;;;;;3.05;2.70;;;;;;;;;;2079485;28;20441;-67
2023/03/22 04:17:27;;;;;;;3.25;3.05;;;;;;;;;;2078354;28;20441;-67
2023/03/22 04:18:47;;;;;;;3.15;2.95;;;;;;;;;;2078772;28;20034;-67
2023/03/22 04:20:06;;;;;;;2.83;2.63;;;;;;;;;;2078292;28;20483;-67
2023/03/22 04:21:25;;;;;;;3.40;3.10;;;;;;;;;;2078358;28;20025;-67
2023/03/22 04:22:45;;;;;;;2.60;2.40;;;;;;;;;;2079978;28;20030;-67
2023/03/22 04:24:04;;;;;;;2.97;2.78;;;;;;;;;;2079056;28;20034;-67
2023/03/22 04:25:29;;;;;;;3.17;2.88;;;;;;;;;;2079406;28;20017;-67
2023/03/22 04:26:48;;;;;;;2.85;2.65;;;;;;;;;;2079531;28;21156;-67
2023/03/22 04:28:08;;;;;;;3.15;2.80;;;;;;;;;;2080299;28;20033;-67
2023/03/22 04:29:31;;;;;;;2.67;2.47;;;;;;;;;;2078976;28;20410;-67
2023/03/22 04:30:51;;;;;;;2.70;2.50;;;;;;;;;;2079986;28;20069;-67
2023/03/22 04:32:10;;;;;;;3.10;2.90;;;;;;;;;;2078171;28;20025;-67
2023/03/22 04:33:31;;;;;;;3.53;3.22;;;;;;;;;;2078370;28;20408;-67
2023/03/22 04:34:51;;;;;;;3.40;3.10;;;;;;;;;;2078203;28;20025;-67
2023/03/22 04:36:10;;;;;;;4.18;3.38;;;;;;;;;;2079405;28;20037;-67
2023/03/22 04:37:32;;;;;;;3.20;2.95;;;;;;;;;;2079185;28;20066;-67
2023/03/22 04:38:51;;;;;;;3.08;2.78;;;;;;;;;;2080175;28;20467;-67
2023/03/22 04:40:15;;;;;;;3.30;2.97;;;;;;;;;;2081667;28;20561;-67
2023/03/22 04:41:34;;;;;;;3.25;2.95;;;;;;;;;;2080319;28;20030;-67
2023/03/22 04:42:56;;;;;;;3.83;3.10;;;;;;;;;;2079721;28;20030;-67
2023/03/22 04:44:15;;;;;;;3.05;2.85;;;;;;;;;;2078324;28;20022;-67
2023/03/22 04:45:34;;;;;;;3.40;3.10;;;;;;;;;;2078403;28;20029;-67
2023/03/22 04:46:53;;;;;;;3.20;2.95;;;;;;;;;;2077581;28;20030;-67
2023/03/22 04:48:12;;;;;;;3.65;2.90;;;;;;;;;;2078931;28;20038;-67
2023/03/22 04:49:31;;;;;;;3.28;2.97;;;;;;;;;;2077962;28;20069;-67
2023/03/22 04:50:52;;;;;;;3.13;2.88;;;;;;;;;;2079071;28;20478;-67
2023/03/22 04:52:10;;;;;;;3.10;2.90;;;;;;;;;;2077868;28;20116;-67
2023/03/22 04:53:30;;;;;;;3.25;2.92;;;;;;;;;;2078449;28;20045;-67
2023/03/22 04:54:49;;;;;;;3.40;3.10;;;;;;;;;;2086510;28;20112;-67
2023/03/22 04:56:10;;;;;;;3.50;3.08;;;;;;;;;;2081160;28;20025;-67
2023/03/22 04:57:29;;;;;;;3.38;3.17;;;;;;;;;;2078895;28;20059;-67
2023/03/22 04:58:48;;;;;;;3.70;3.50;;;;;;;;;;2078721;28;20030;-66
2023/03/22 05:00:07;;;;;;;3.92;3.60;;;;;;;;;;2079115;28;20034;-67
2023/03/22 05:01:26;;;;;;;3.78;3.45;;;;;;;;;;2077104;28;20034;-67
2023/03/22 05:02:45;;;;;;;3.65;3.35;;;;;;;;;;2079622;28;20109;-67
2023/03/22 05:04:04;;;;;;;3.85;3.38;;;;;;;;;;2078845;28;20026;-67
2023/03/22 05:05:23;;;;;;;5.40;3.17;;;;;;;;;;2082457;28;20033;-67
2023/03/22 05:06:43;;;;;;;4.22;3.00;;;;;;;;;;2080922;28;20025;-67
2023/03/22 05:08:02;;;;;;;13.23;8.73;;;;;;;;;;2076762;28;20029;-68
2023/03/22 05:09:21;;;;;;;10.77;6.32;;;;;;;;;;2077904;28;20053;-67
2023/03/22 05:10:40;;;;;;;10.13;7.45;;;;;;;;;;2086298;28;20025;-67
2023/03/22 05:11:59;;;;;;;6.95;5.20;;;;;;;;;;2076855;28;20101;-67
2023/03/22 05:13:19;;;;;;;5.10;4.18;;;;;;;;;;2078241;28;20033;-67
2023/03/22 05:14:38;;;;;;;6.60;4.47;;;;;;;;;;2078247;28;20022;-67
2023/03/22 05:15:58;;;;;;;3.38;3.08;;;;;;;;;;2079469;28;20056;-67
2023/03/22 05:17:17;;;;;;;3.97;3.13;;;;;;;;;;2078022;28;20029;-67
2023/03/22 05:18:41;;;;;;;3.38;3.08;;;;;;;;;;2078160;28;20113;-67
2023/03/22 05:20:07;;;;;;;4.35;3.28;;;;;;;;;;2078088;28;20112;-67
2023/03/22 05:21:27;;;;;;;3.35;3.05;;;;;;;;;;2085314;28;20112;-67
2023/03/22 05:22:49;;;;;;;2.90;2.70;;;;;;;;;;2080705;28;20510;-67
2023/03/22 05:24:08;;;;;;;2.85;2.58;;;;;;;;;;2078413;28;20022;-67
2023/03/22 05:25:27;;;;;;;2.85;2.65;;;;;;;;;;2078882;28;20070;-70
2023/03/22 05:26:52;;;;;;;6.68;2.85;;;;;;;;;;2077008;28;20034;-67
2023/03/22 05:28:13;;;;;;;3.30;2.60;;;;;;;;;;2078627;28;20025;-67
2023/03/22 05:29:35;;;;;;;6.18;2.67;;;;;;;;;;2078298;28;20409;-66
2023/03/22 05:30:54;;;;;;;3.13;2.67;;;;;;;;;;2078295;28;20124;-67
2023/03/22 05:32:13;;;;;;;2.65;2.45;;;;;;;;;;2076785;28;20021;-67
2023/03/22 05:33:33;;;;;;;3.10;2.30;;;;;;;;;;2078203;28;20049;-68
2023/03/22 05:34:52;;;;;;;2.58;2.38;;;;;;;;;;2077544;28;20760;-68
2023/03/22 05:36:11;;;;;;;2.58;2.38;;;;;;;;;;2079703;28;20025;-68
2023/03/22 05:37:31;;;;;;;2.92;2.40;;;;;;;;;;2077866;28;20421;-68
2023/03/22 05:38:50;;;;;;;3.20;2.90;;;;;;;;;;2078210;28;20024;-68
2023/03/22 05:40:09;;;;;;;5.22;3.10;;;;;;;;;;2081373;28;20026;-68
2023/03/22 05:41:30;;;;;;;3.10;2.90;;;;;;;;;;2081693;28;20683;-68
2023/03/22 05:42:49;;;;;;;3.33;2.42;;;;;;;;;;2077585;28;20465;-68
2023/03/22 05:44:08;;;;;;;3.97;2.83;;;;;;;;;;2077658;28;20022;-68
2023/03/22 05:45:26;;;;;;;6.60;2.92;;;;;;;;;;2077325;28;20482;-68
2023/03/22 05:46:45;;;;;;;4.97;3.20;;;;;;;;;;2077869;28;20030;-68
2023/03/22 05:48:05;;;;;;;2.97;2.65;;;;;;;;;;2077594;28;20029;-67
2023/03/22 05:49:25;;;;;;;3.90;2.95;;;;;;;;;;2078018;28;20017;-67
2023/03/22 05:50:44;;;;;;;4.70;3.08;;;;;;;;;;2077030;28;20034;-66
2023/03/22 05:52:04;;;;;;;3.75;3.22;;;;;;;;;;2078777;28;20022;-67
2023/03/22 05:53:24;;;;;;;2.95;2.75;;;;;;;;;;2077188;28;20041;-68
2023/03/22 05:54:43;;;;;;;3.45;2.70;;;;;;;;;;2079032;28;20597;-67
2023/03/22 05:56:02;;;;;;;2.80;2.60;;;;;;;;;;2077398;28;20510;-67
2023/03/22 05:57:21;;;;;;;2.97;2.45;;;;;;;;;;2078285;28;20037;-67
2023/03/22 05:58:40;;;;;;;3.50;2.78;;;;;;;;;;2077652;28;20045;-67
2023/03/22 06:00:00;;;;;;;3.42;3.17;;;;;;;;;;2078345;28;20487;-67
2023/03/22 06:01:20;;;;;;;2.60;2.40;;;;;;;;;;2077772;28;20033;-67
2023/03/22 06:02:40;;;;;;;3.10;2.90;;;;;;;;;;2078104;28;20112;-67
2023/03/22 06:03:58;;;;;;;4.80;2.78;;;;;;;;;;2077328;28;20053;-67
2023/03/22 06:05:19;;;;;;;3.55;2.75;;;;;;;;;;2077321;28;20053;-67
2023/03/22 06:06:38;;;;;;;3.72;2.63;;;;;;;;;;2077665;28;20106;-67
2023/03/22 06:07:58;;;;;;;3.53;3.10;;;;;;;;;;2077035;28;20467;-67
2023/03/22 06:09:17;;;;;;;2.90;2.70;;;;;;;;;;2085354;28;20040;-67
2023/03/22 06:10:35;;;;;;;2.75;2.55;;;;;;;;;;2081402;28;20030;-67
2023/03/22 06:11:55;;;;;;;3.20;3.00;;;;;;;;;;2078789;28;20018;-67
2023/03/22 06:13:13;;;;;;;4.05;2.83;;;;;;;;;;2076615;28;20542;-67
2023/03/22 06:14:33;;;;;;;2.30;2.10;;;;;;;;;;2078335;28;20033;-67
2023/03/22 06:15:51;;;;;;;5.65;3.67;;;;;;;;;;2078609;28;20025;-67
2023/03/22 06:17:11;;;;;;;2.25;2.10;;;;;;;;;;2079208;28;20041;-67
2023/03/22 06:18:30;;;;;;;2.00;1.90;;;;;;;;;;2076718;28;20034;-67
2023/03/22 06:19:49;;;;;;;2.40;2.20;;;;;;;;;;2077370;28;20025;-67
2023/03/22 06:21:08;;;;;;;2.20;2.10;;;;;;;;;;2077725;28;20529;-67
2023/03/22 06:22:29;;;;;;;2.80;2.60;;;;;;;;;;2077477;28;20038;-67
2023/03/22 06:23:48;;;;;;;3.15;2.20;;;;;;;;;;2080622;28;20057;-67
2023/03/22 06:25:07;;;;;;;2.50;2.30;;;;;;;;;;2078820;28;20479;-67
2023/03/22 06:26:26;;;;;;;2.30;2.10;;;;;;;;;;2085629;28;20986;-67
2023/03/22 06:27:45;;;;;;;2.65;2.40;;;;;;;;;;2081066;28;20530;-67
2023/03/22 06:29:04;;;;;;;2.63;2.45;;;;;;;;;;2078866;28;20034;-67
2023/03/22 06:30:23;;;;;;;2.30;2.20;;;;;;;;;;2077520;28;20034;-67
2023/03/22 06:31:42;;;;;;;2.55;2.35;;;;;;;;;;2078678;28;20083;-67
2023/03/22 06:33:04;;;;;;;2.80;2.60;;;;;;;;;;2078596;28;20494;-67
2023/03/22 06:34:23;;;;;;;2.72;2.20;;;;;;;;;;2078933;28;20061;-67
2023/03/22 06:35:42;;;;;;;2.17;2.08;;;;;;;;;;2076792;28;20034;-67
2023/03/22 06:37:01;;;;;;;3.35;2.97;;;;;;;;;;2077868;28;20029;-67
2023/03/22 06:38:20;;;;;;;3.22;2.45;;;;;;;;;;2076955;28;20021;-67
2023/03/22 06:39:39;;;;;;;2.78;2.58;;;;;;;;;;2077802;28;20022;-67
2023/03/22 06:40:58;;;;;;;2.40;2.30;;;;;;;;;;2077665;28;20636;-67
2023/03/22 06:42:17;;;;;;;2.30;2.20;;;;;;;;;;2076886;28;20478;-67
2023/03/22 06:43:36;;;;;;;2.53;2.35;;;;;;;;;;2076796;28;20030;-67
2023/03/22 06:44:55;;;;;;;2.80;2.60;;;;;;;;;;2077540;28;20101;-67
2023/03/22 06:46:15;;;;;;;2.42;2.33;;;;;;;;;;2077183;28;20034;-71
2023/03/22 06:47:34;;;;;;;2.35;2.13;;;;;;;;;;2076672;28;20030;-67
2023/03/22 06:48:54;;;;;;;3.80;2.30;;;;;;;;;;2080435;28;20109;-68
2023/03/22 06:50:14;;;;;;;2.92;2.72;;;;;;;;;;2078539;28;20041;-67
2023/03/22 06:51:33;;;;;;;2.60;2.42;;;;;;;;;;2077343;28;20033;-67
2023/03/22 06:52:52;;;;;;;3.33;2.80;;;;;;;;;;2077513;28;20038;-68
2023/03/22 06:54:12;;;;;;;3.47;2.80;;;;;;;;;;2078390;28;20037;-67
2023/03/22 06:55:33;;;;;;;2.80;2.60;;;;;;;;;;2077319;28;20272;-67
2023/03/22 06:56:52;;;;;;;3.55;3.05;;;;;;;;;;2079276;28;20502;-67
2023/03/22 06:58:11;;;;;;;2.67;2.47;;;;;;;;;;2085000;28;20026;-67
2023/03/22 06:59:30;;;;;;;2.67;2.47;;;;;;;;;;2080808;28;20029;-68
2023/03/22 07:00:49;;;;;;;2.85;2.65;;;;;;;;;;2077497;28;20097;-67
2023/03/22 07:02:11;;;;;;;2.80;2.60;;;;;;;;;;2079001;28;20112;-67
2023/03/22 07:03:30;;;;;;;3.08;2.88;;;;;;;;;;2085244;28;20469;-67
2023/03/22 07:04:49;;;;;;;3.22;2.70;;;;;;;;;;2079755;28;20466;-67
2023/03/22 07:06:08;;;;;;;3.47;3.17;;;;;;;;;;2077874;28;20324;-67
2023/03/22 07:07:26;;;;;;;4.10;2.70;;;;;;;;;;2077652;28;20037;-67
2023/03/22 07:08:45;;;;;;;3.83;3.03;;;;;;;;;;2077656;28;20038;-67
2023/03/22 07:10:06;;;;;;;3.58;3.28;;;;;;;;;;2077318;28;20034;-67
2023/03/22 07:11:25;;;;;;;2.95;2.75;;;;;;;;;;2077777;28;20029;-67
2023/03/22 07:12:44;;;;;;;3.50;3.22;;;;;;;;;;2076472;28;20478;-67
2023/03/22 07:14:03;;;;;;;3.42;3.22;;;;;;;;;;2079636;28;20128;-67
2023/03/22 07:15:23;;;;;;;3.15;2.95;;;;;;;;;;2076623;28;20037;-67
2023/03/22 07:16:42;;;;;;;3.92;3.63;;;;;;;;;;2078586;28;20017;-67
2023/03/22 07:18:01;;;;;;;3.58;3.38;;;;;;;;;;2077640;28;20486;-67
2023/03/22 07:19:20;;;;;;;3.58;3.28;;;;;;;;;;2077957;28;20127;-67
2023/03/22 07:20:40;;;;;;;3.58;3.28;;;;;;;;;;2077199;28;20026;-67
2023/03/22 07:21:59;;;;;;;3.67;3.38;;;;;;;;;;2078133;28;20339;-67
2023/03/22 07:23:18;;;;;;;4.03;3.63;;;;;;;;;;2077314;28;20026;-67
2023/03/22 07:24:37;;;;;;;4.30;3.83;;;;;;;;;;2085404;28;20037;-67
2023/03/22 07:25:58;;;;;;;3.45;3.25;;;;;;;;;;2079596;28;20038;-67
2023/03/22 07:27:16;;;;;;;3.75;3.38;;;;;;;;;;2077205;28;20032;-67
2023/03/22 07:28:36;;;;;;;3.90;3.60;;;;;;;;;;2080758;28;20044;-67
2023/03/22 07:29:54;;;;;;;3.95;3.65;;;;;;;;;;2079513;28;20030;-67
2023/03/22 07:31:13;;;;;;;4.18;3.85;;;;;;;;;;2077043;28;20030;-67
2023/03/22 07:32:32;;;;;;;4.53;4.22;;;;;;;;;;2077025;28;20073;-67
2023/03/22 07:33:51;;;;;;;3.80;3.40;;;;;;;;;;2078217;28;20327;-68
2023/03/22 07:35:10;;;;;;;4.88;4.35;;;;;;;;;;2077553;28;20100;-67
2023/03/22 07:36:29;;;;;;;4.45;4.15;;;;;;;;;;2078134;28;20092;-67
2023/03/22 07:37:49;;;;;;;4.70;4.18;;;;;;;;;;2077130;28;20061;-67
2023/03/22 07:39:09;;;;;;;5.38;4.82;;;;;;;;;;2078509;28;20486;-67
2023/03/22 07:40:28;;;;;;;6.13;4.68;;;;;;;;;;2077406;28;20125;-67
2023/03/22 07:41:47;;;;;;;5.55;5.13;;;;;;;;;;2073205;28;20026;-67
2023/03/22 07:43:06;;;;;;;6.28;4.70;;;;;;;;;;2077215;28;20030;-67
2023/03/22 07:44:25;;;;;;;4.68;4.28;;;;;;;;;;2077696;28;20117;-67
2023/03/22 07:45:44;;;;;;;5.20;4.80;;;;;;;;;;2076727;28;20018;-67
2023/03/22 07:47:03;;;;;;;4.75;4.35;;;;;;;;;;2077023;28;20486;-67
2023/03/22 07:48:22;;;;;;;5.95;5.10;;;;;;;;;;2078105;28;20034;-67
2023/03/22 07:49:41;;;;;;;5.80;5.22;;;;;;;;;;2077303;28;20026;-67
2023/03/22 07:51:00;;;;;;;5.75;5.05;;;;;;;;;;2076827;28;20054;-67
2023/03/22 07:52:19;;;;;;;5.50;5.10;;;;;;;;;;2077499;28;20482;-67
2023/03/22 07:53:38;;;;;;;5.70;5.22;;;;;;;;;;2078152;28;20494;-67
2023/03/22 07:54:57;;;;;;;6.18;5.18;;;;;;;;;;2076832;28;20029;-67
2023/03/22 07:56:19;;;;;;;5.47;5.07;;;;;;;;;;2078823;28;20060;-67
2023/03/22 07:57:38;;;;;;;5.85;5.38;;;;;;;;;;2077532;28;20041;-66
2023/03/22 07:58:57;;;;;;;5.70;5.25;;;;;;;;;;2076767;28;20030;-67
2023/03/22 08:00:17;;;;;;;5.88;5.38;;;;;;;;;;2077322;28;20057;-67
2023/03/22 08:01:36;;;;;;;6.68;6.05;;;;;;;;;;2077064;28;20069;-67
2023/03/22 08:02:55;;;;;;;5.88;5.38;;;;;;;;;;2076327;28;20021;-67